sensor_id;sensor_type;location;lat;lon;timestamp;temperature;humidity
40670;DHT22;26355;45.528;9.234;2023-02-18T00:01:13;13.20;99.90
40670;DHT22;26355;45.528;9.234;2023-02-18T00:03:39;13.10;99.90
40670;DHT22;26355;45.528;9.234;2023-02-18T00:06:11;13.00;99.90
40670;DHT22;26355;45.528;9.234;2023-02-18T00:08:37;13.10;99.90
40670;DHT22;26355;45.528;9.234;2023-02-18T00:11:04;13.00;99.90
40670;DHT22;26355;45.528;9.234;2023-02-18T00:13:29;13.00;99.90
40670;DHT22;26355;45.528;9.234;2023-02-18T00:15:59;13.00;99.90
40670;DHT22;26355;45.528;9.234;2023-02-18T00:18:24;13.00;99.90
40670;DHT22;26355;45.528;9.234;2023-02-18T00:20:50;13.00;99.90
40670;DHT22;26355;45.528;9.234;2023-02-18T00:23:15;13.00;99.90
40670;DHT22;26355;45.528;9.234;2023-02-18T00:25:41;13.00;99.90
40670;DHT22;26355;45.528;9.234;2023-02-18T00:28:06;13.00;99.90
40670;DHT22;26355;45.528;9.234;2023-02-18T00:30:32;12.90;99.90
40670;DHT22;26355;45.528;9.234;2023-02-18T00:32:57;13.00;99.90
40670;DHT22;26355;45.528;9.234;2023-02-18T00:35:23;13.00;99.90
40670;DHT22;26355;45.528;9.234;2023-02-18T00:37:50;13.00;99.90
40670;DHT22;26355;45.528;9.234;2023-02-18T00:40:15;12.90;99.90
40670;DHT22;26355;45.528;9.234;2023-02-18T00:42:41;13.10;99.90
40670;DHT22;26355;45.528;9.234;2023-02-18T00:45:06;12.90;99.90
40670;DHT22;26355;45.528;9.234;2023-02-18T00:47:32;13.00;99.90
40670;DHT22;26355;45.528;9.234;2023-02-18T00:49:57;12.90;99.90
40670;DHT22;26355;45.528;9.234;2023-02-18T00:52:23;12.90;99.90
40670;DHT22;26355;45.528;9.234;2023-02-18T00:54:48;12.90;99.90
40670;DHT22;26355;45.528;9.234;2023-02-18T00:57:14;12.90;99.90
40670;DHT22;26355;45.528;9.234;2023-02-18T00:59:39;12.90;99.90
40670;DHT22;26355;45.528;9.234;2023-02-18T01:02:05;12.70;99.90
40670;DHT22;26355;45.528;9.234;2023-02-18T01:04:31;13.20;99.90
40670;DHT22;26355;45.528;9.234;2023-02-18T01:06:57;12.80;99.90
40670;DHT22;26355;45.528;9.234;2023-02-18T01:09:22;12.80;99.90
40670;DHT22;26355;45.528;9.234;2023-02-18T01:11:50;12.70;99.90
40670;DHT22;26355;45.528;9.234;2023-02-18T01:14:15;12.70;99.90
40670;DHT22;26355;45.528;9.234;2023-02-18T01:16:41;12.70;99.90
40670;DHT22;26355;45.528;9.234;2023-02-18T01:19:06;12.80;99.90
40670;DHT22;26355;45.528;9.234;2023-02-18T01:21:32;12.80;99.90
40670;DHT22;26355;45.528;9.234;2023-02-18T01:23:57;12.90;99.90
40670;DHT22;26355;45.528;9.234;2023-02-18T01:26:23;12.80;99.90
40670;DHT22;26355;45.528;9.234;2023-02-18T01:28:49;12.80;99.90
40670;DHT22;26355;45.528;9.234;2023-02-18T01:31:14;12.80;99.90
40670;DHT22;26355;45.528;9.234;2023-02-18T01:33:40;13.00;99.90
40670;DHT22;26355;45.528;9.234;2023-02-18T01:36:06;12.90;99.90
40670;DHT22;26355;45.528;9.234;2023-02-18T01:38:31;12.80;99.90
40670;DHT22;26355;45.528;9.234;2023-02-18T01:40:57;12.90;99.90
40670;DHT22;26355;45.528;9.234;2023-02-18T01:43:23;12.80;99.90
40670;DHT22;26355;45.528;9.234;2023-02-18T01:45:55;12.80;99.90
40670;DHT22;26355;45.528;9.234;2023-02-18T01:51:04;12.70;99.90
40670;DHT22;26355;45.528;9.234;2023-02-18T01:53:33;12.80;99.90
40670;DHT22;26355;45.528;9.234;2023-02-18T01:56:00;12.70;99.90
40670;DHT22;26355;45.528;9.234;2023-02-18T01:58:27;12.70;99.90
40670;DHT22;26355;45.528;9.234;2023-02-18T02:00:52;12.60;99.90
40670;DHT22;26355;45.528;9.234;2023-02-18T02:03:17;12.60;99.90
40670;DHT22;26355;45.528;9.234;2023-02-18T02:05:43;12.60;99.90
40670;DHT22;26355;45.528;9.234;2023-02-18T02:08:08;12.60;99.90
40670;DHT22;26355;45.528;9.234;2023-02-18T02:10:39;12.70;99.90
40670;DHT22;26355;45.528;9.234;2023-02-18T02:13:12;12.60;99.90
40670;DHT22;26355;45.528;9.234;2023-02-18T02:15:49;12.60;99.90
40670;DHT22;26355;45.528;9.234;2023-02-18T02:26:30;12.50;99.90
40670;DHT22;26355;45.528;9.234;2023-02-18T02:31:40;12.50;99.90
40670;DHT22;26355;45.528;9.234;2023-02-18T02:36:39;12.50;99.90
40670;DHT22;26355;45.528;9.234;2023-02-18T02:41:53;12.50;99.90
40670;DHT22;26355;45.528;9.234;2023-02-18T02:44:23;12.50;99.90
40670;DHT22;26355;45.528;9.234;2023-02-18T02:46:52;12.50;99.90
40670;DHT22;26355;45.528;9.234;2023-02-18T02:52:03;12.50;99.90
40670;DHT22;26355;45.528;9.234;2023-02-18T02:54:29;12.50;99.90
40670;DHT22;26355;45.528;9.234;2023-02-18T02:59:33;12.40;99.90
40670;DHT22;26355;45.528;9.234;2023-02-18T03:04:47;12.40;99.90
40670;DHT22;26355;45.528;9.234;2023-02-18T03:07:27;12.40;99.90
40670;DHT22;26355;45.528;9.234;2023-02-18T03:10:59;12.40;99.90
40670;DHT22;26355;45.528;9.234;2023-02-18T03:15:48;12.30;99.90
40670;DHT22;26355;45.528;9.234;2023-02-18T03:18:16;12.30;99.90
40670;DHT22;26355;45.528;9.234;2023-02-18T03:21:26;12.40;99.90
40670;DHT22;26355;45.528;9.234;2023-02-18T03:23:34;12.30;99.90
40670;DHT22;26355;45.528;9.234;2023-02-18T03:26:02;12.30;99.90
40670;DHT22;26355;45.528;9.234;2023-02-18T03:28:29;12.40;99.90
40670;DHT22;26355;45.528;9.234;2023-02-18T03:31:04;12.20;99.90
40670;DHT22;26355;45.528;9.234;2023-02-18T03:33:33;12.20;99.90
40670;DHT22;26355;45.528;9.234;2023-02-18T03:36:01;12.20;99.90
40670;DHT22;26355;45.528;9.234;2023-02-18T03:38:41;12.20;99.90
40670;DHT22;26355;45.528;9.234;2023-02-18T03:41:08;12.20;99.90
40670;DHT22;26355;45.528;9.234;2023-02-18T03:43:34;12.20;99.90
40670;DHT22;26355;45.528;9.234;2023-02-18T03:45:59;12.30;99.90
40670;DHT22;26355;45.528;9.234;2023-02-18T03:48:25;12.20;99.90
40670;DHT22;26355;45.528;9.234;2023-02-18T03:50:51;12.30;99.90
40670;DHT22;26355;45.528;9.234;2023-02-18T03:53:16;12.20;99.90
40670;DHT22;26355;45.528;9.234;2023-02-18T03:55:42;12.30;99.90
40670;DHT22;26355;45.528;9.234;2023-02-18T03:58:07;12.20;99.90
40670;DHT22;26355;45.528;9.234;2023-02-18T04:00:32;12.10;99.90
40670;DHT22;26355;45.528;9.234;2023-02-18T04:02:58;12.00;99.90
40670;DHT22;26355;45.528;9.234;2023-02-18T04:05:23;11.90;99.90
40670;DHT22;26355;45.528;9.234;2023-02-18T04:07:49;11.90;99.90
40670;DHT22;26355;45.528;9.234;2023-02-18T04:10:14;11.70;99.90
40670;DHT22;26355;45.528;9.234;2023-02-18T04:12:40;11.90;99.90
40670;DHT22;26355;45.528;9.234;2023-02-18T04:15:05;11.80;99.90
40670;DHT22;26355;45.528;9.234;2023-02-18T04:17:32;11.80;99.90
40670;DHT22;26355;45.528;9.234;2023-02-18T04:19:57;11.70;99.90
40670;DHT22;26355;45.528;9.234;2023-02-18T04:22:23;11.80;99.90
40670;DHT22;26355;45.528;9.234;2023-02-18T04:24:48;11.70;99.90
40670;DHT22;26355;45.528;9.234;2023-02-18T04:27:14;11.90;99.90
40670;DHT22;26355;45.528;9.234;2023-02-18T04:29:39;11.70;99.90
40670;DHT22;26355;45.528;9.234;2023-02-18T04:32:05;11.60;99.90
40670;DHT22;26355;45.528;9.234;2023-02-18T04:34:30;11.60;99.90
40670;DHT22;26355;45.528;9.234;2023-02-18T04:36:56;11.60;99.90
40670;DHT22;26355;45.528;9.234;2023-02-18T04:39:21;11.50;99.90
40670;DHT22;26355;45.528;9.234;2023-02-18T04:41:47;11.50;99.90
40670;DHT22;26355;45.528;9.234;2023-02-18T04:44:12;11.50;99.90
40670;DHT22;26355;45.528;9.234;2023-02-18T04:46:38;11.40;99.90
40670;DHT22;26355;45.528;9.234;2023-02-18T04:49:03;12.00;99.90
40670;DHT22;26355;45.528;9.234;2023-02-18T04:51:29;11.30;99.90
40670;DHT22;26355;45.528;9.234;2023-02-18T04:53:54;11.20;99.90
40670;DHT22;26355;45.528;9.234;2023-02-18T04:56:20;11.20;99.90
40670;DHT22;26355;45.528;9.234;2023-02-18T04:58:45;11.30;99.90
40670;DHT22;26355;45.528;9.234;2023-02-18T05:01:11;11.80;99.90
40670;DHT22;26355;45.528;9.234;2023-02-18T05:03:36;11.10;99.90
40670;DHT22;26355;45.528;9.234;2023-02-18T05:06:02;11.30;99.90
40670;DHT22;26355;45.528;9.234;2023-02-18T05:08:28;11.00;99.90
40670;DHT22;26355;45.528;9.234;2023-02-18T05:10:53;11.00;99.90
40670;DHT22;26355;45.528;9.234;2023-02-18T05:13:19;11.00;99.90
40670;DHT22;26355;45.528;9.234;2023-02-18T05:15:45;11.00;99.90
40670;DHT22;26355;45.528;9.234;2023-02-18T05:18:10;11.00;99.90
40670;DHT22;26355;45.528;9.234;2023-02-18T05:20:36;11.00;99.90
40670;DHT22;26355;45.528;9.234;2023-02-18T05:23:01;11.00;99.90
40670;DHT22;26355;45.528;9.234;2023-02-18T05:25:26;11.00;99.90
40670;DHT22;26355;45.528;9.234;2023-02-18T05:27:52;11.00;99.90
40670;DHT22;26355;45.528;9.234;2023-02-18T05:30:17;11.00;99.90
40670;DHT22;26355;45.528;9.234;2023-02-18T05:32:44;11.00;99.90
40670;DHT22;26355;45.528;9.234;2023-02-18T05:35:10;11.00;99.90
40670;DHT22;26355;45.528;9.234;2023-02-18T05:37:35;11.10;99.90
40670;DHT22;26355;45.528;9.234;2023-02-18T05:40:01;11.10;99.90
40670;DHT22;26355;45.528;9.234;2023-02-18T05:42:26;11.20;99.90
40670;DHT22;26355;45.528;9.234;2023-02-18T05:44:52;11.20;99.90
40670;DHT22;26355;45.528;9.234;2023-02-18T05:47:17;11.60;99.90
40670;DHT22;26355;45.528;9.234;2023-02-18T05:49:43;11.30;99.90
40670;DHT22;26355;45.528;9.234;2023-02-18T05:52:08;11.30;99.90
40670;DHT22;26355;45.528;9.234;2023-02-18T05:54:35;11.40;99.90
40670;DHT22;26355;45.528;9.234;2023-02-18T05:57:01;11.30;99.90
40670;DHT22;26355;45.528;9.234;2023-02-18T05:59:26;11.30;99.90
40670;DHT22;26355;45.528;9.234;2023-02-18T06:01:52;11.40;99.90
40670;DHT22;26355;45.528;9.234;2023-02-18T06:04:18;11.40;99.90
40670;DHT22;26355;45.528;9.234;2023-02-18T06:06:43;11.40;99.90
40670;DHT22;26355;45.528;9.234;2023-02-18T06:09:09;11.50;99.90
40670;DHT22;26355;45.528;9.234;2023-02-18T06:11:34;11.40;99.90
40670;DHT22;26355;45.528;9.234;2023-02-18T06:14:00;11.40;99.90
40670;DHT22;26355;45.528;9.234;2023-02-18T06:16:26;11.30;99.90
40670;DHT22;26355;45.528;9.234;2023-02-18T06:18:51;11.40;99.90
40670;DHT22;26355;45.528;9.234;2023-02-18T06:21:17;11.30;99.90
40670;DHT22;26355;45.528;9.234;2023-02-18T06:23:42;11.30;99.90
40670;DHT22;26355;45.528;9.234;2023-02-18T06:26:08;11.30;99.90
40670;DHT22;26355;45.528;9.234;2023-02-18T06:28:33;11.30;99.90
40670;DHT22;26355;45.528;9.234;2023-02-18T06:30:59;11.30;99.90
40670;DHT22;26355;45.528;9.234;2023-02-18T06:33:24;11.30;99.90
40670;DHT22;26355;45.528;9.234;2023-02-18T06:35:55;11.30;99.90
40670;DHT22;26355;45.528;9.234;2023-02-18T06:38:20;11.20;99.90
40670;DHT22;26355;45.528;9.234;2023-02-18T06:40:46;11.00;99.90
40670;DHT22;26355;45.528;9.234;2023-02-18T06:43:12;11.20;99.90
40670;DHT22;26355;45.528;9.234;2023-02-18T06:45:38;11.10;99.90
40670;DHT22;26355;45.528;9.234;2023-02-18T06:48:03;11.20;99.90
40670;DHT22;26355;45.528;9.234;2023-02-18T06:50:29;11.10;99.90
40670;DHT22;26355;45.528;9.234;2023-02-18T06:52:54;11.00;99.90
40670;DHT22;26355;45.528;9.234;2023-02-18T06:55:20;11.30;99.90
40670;DHT22;26355;45.528;9.234;2023-02-18T06:57:45;11.60;99.90
40670;DHT22;26355;45.528;9.234;2023-02-18T07:00:11;11.60;99.90
40670;DHT22;26355;45.528;9.234;2023-02-18T07:02:36;11.70;99.90
40670;DHT22;26355;45.528;9.234;2023-02-18T07:05:02;11.70;99.90
40670;DHT22;26355;45.528;9.234;2023-02-18T07:07:27;11.80;99.90
40670;DHT22;26355;45.528;9.234;2023-02-18T07:09:53;12.00;99.90
40670;DHT22;26355;45.528;9.234;2023-02-18T07:12:18;12.20;99.90
40670;DHT22;26355;45.528;9.234;2023-02-18T07:14:44;12.10;99.90
40670;DHT22;26355;45.528;9.234;2023-02-18T07:17:10;12.20;99.90
40670;DHT22;26355;45.528;9.234;2023-02-18T07:19:35;12.20;99.90
40670;DHT22;26355;45.528;9.234;2023-02-18T07:22:01;12.40;99.90
40670;DHT22;26355;45.528;9.234;2023-02-18T07:24:26;12.70;99.90
40670;DHT22;26355;45.528;9.234;2023-02-18T07:26:52;12.70;99.90
40670;DHT22;26355;45.528;9.234;2023-02-18T07:29:17;12.90;99.90
40670;DHT22;26355;45.528;9.234;2023-02-18T07:31:43;13.00;99.90
40670;DHT22;26355;45.528;9.234;2023-02-18T07:34:08;13.50;99.90
40670;DHT22;26355;45.528;9.234;2023-02-18T07:36:34;14.00;99.90
40670;DHT22;26355;45.528;9.234;2023-02-18T07:38:59;14.50;99.90
40670;DHT22;26355;45.528;9.234;2023-02-18T07:41:25;14.80;99.90
40670;DHT22;26355;45.528;9.234;2023-02-18T07:43:50;15.20;99.90
40670;DHT22;26355;45.528;9.234;2023-02-18T07:46:16;15.40;99.90
40670;DHT22;26355;45.528;9.234;2023-02-18T07:48:41;15.50;99.90
40670;DHT22;26355;45.528;9.234;2023-02-18T07:51:08;15.90;99.90
40670;DHT22;26355;45.528;9.234;2023-02-18T07:53:33;16.20;99.90
40670;DHT22;26355;45.528;9.234;2023-02-18T07:55:59;16.60;99.90
40670;DHT22;26355;45.528;9.234;2023-02-18T07:58:26;16.90;99.80
40670;DHT22;26355;45.528;9.234;2023-02-18T08:00:52;17.00;99.60
40670;DHT22;26355;45.528;9.234;2023-02-18T08:03:19;17.20;99.20
40670;DHT22;26355;45.528;9.234;2023-02-18T08:05:46;17.30;98.90
40670;DHT22;26355;45.528;9.234;2023-02-18T08:08:12;17.50;98.70
40670;DHT22;26355;45.528;9.234;2023-02-18T08:10:38;17.50;98.50
40670;DHT22;26355;45.528;9.234;2023-02-18T08:13:03;17.80;98.50
40670;DHT22;26355;45.528;9.234;2023-02-18T08:15:29;17.60;98.30
40670;DHT22;26355;45.528;9.234;2023-02-18T08:17:54;17.70;98.10
40670;DHT22;26355;45.528;9.234;2023-02-18T08:20:20;17.70;98.10
40670;DHT22;26355;45.528;9.234;2023-02-18T08:22:45;17.60;98.10
40670;DHT22;26355;45.528;9.234;2023-02-18T08:25:11;17.50;98.30
40670;DHT22;26355;45.528;9.234;2023-02-18T08:27:36;17.20;98.40
40670;DHT22;26355;45.528;9.234;2023-02-18T08:30:02;17.20;98.60
40670;DHT22;26355;45.528;9.234;2023-02-18T08:32:28;16.80;98.80
40670;DHT22;26355;45.528;9.234;2023-02-18T08:34:53;16.60;99.10
40670;DHT22;26355;45.528;9.234;2023-02-18T08:37:19;16.40;99.20
40670;DHT22;26355;45.528;9.234;2023-02-18T08:39:44;16.40;99.50
40670;DHT22;26355;45.528;9.234;2023-02-18T08:42:10;16.50;99.50
40670;DHT22;26355;45.528;9.234;2023-02-18T08:44:35;16.50;99.80
40670;DHT22;26355;45.528;9.234;2023-02-18T08:47:01;16.50;99.60
40670;DHT22;26355;45.528;9.234;2023-02-18T08:49:26;16.60;99.60
40670;DHT22;26355;45.528;9.234;2023-02-18T08:51:52;16.70;99.30
40670;DHT22;26355;45.528;9.234;2023-02-18T08:54:17;16.60;99.40
40670;DHT22;26355;45.528;9.234;2023-02-18T08:56:43;16.70;99.40
40670;DHT22;26355;45.528;9.234;2023-02-18T08:59:08;16.90;99.40
40670;DHT22;26355;45.528;9.234;2023-02-18T09:01:34;16.90;99.10
40670;DHT22;26355;45.528;9.234;2023-02-18T09:04:00;16.80;98.90
40670;DHT22;26355;45.528;9.234;2023-02-18T09:06:25;16.90;99.10
40670;DHT22;26355;45.528;9.234;2023-02-18T09:08:51;17.00;99.10
40670;DHT22;26355;45.528;9.234;2023-02-18T09:11:16;17.20;99.20
40670;DHT22;26355;45.528;9.234;2023-02-18T09:13:42;17.40;98.90
40670;DHT22;26355;45.528;9.234;2023-02-18T09:16:10;17.50;98.70
40670;DHT22;26355;45.528;9.234;2023-02-18T09:18:35;17.60;98.60
40670;DHT22;26355;45.528;9.234;2023-02-18T09:21:02;17.70;98.60
40670;DHT22;26355;45.528;9.234;2023-02-18T09:23:28;17.70;98.60
40670;DHT22;26355;45.528;9.234;2023-02-18T09:25:54;17.70;98.50
40670;DHT22;26355;45.528;9.234;2023-02-18T09:28:20;17.80;98.30
40670;DHT22;26355;45.528;9.234;2023-02-18T09:30:45;17.90;98.40
40670;DHT22;26355;45.528;9.234;2023-02-18T09:33:11;18.10;98.00
40670;DHT22;26355;45.528;9.234;2023-02-18T09:35:40;18.10;98.00
40670;DHT22;26355;45.528;9.234;2023-02-18T09:38:07;18.20;97.80
40670;DHT22;26355;45.528;9.234;2023-02-18T09:40:32;18.20;97.90
40670;DHT22;26355;45.528;9.234;2023-02-18T09:42:59;18.20;97.40
40670;DHT22;26355;45.528;9.234;2023-02-18T09:45:26;18.00;97.50
40670;DHT22;26355;45.528;9.234;2023-02-18T09:47:52;18.10;98.10
40670;DHT22;26355;45.528;9.234;2023-02-18T09:50:18;18.40;97.80
40670;DHT22;26355;45.528;9.234;2023-02-18T09:52:44;18.60;97.70
40670;DHT22;26355;45.528;9.234;2023-02-18T09:55:21;18.70;97.50
40670;DHT22;26355;45.528;9.234;2023-02-18T09:57:51;19.00;97.40
40670;DHT22;26355;45.528;9.234;2023-02-18T10:00:19;19.20;97.20
40670;DHT22;26355;45.528;9.234;2023-02-18T10:02:49;19.20;97.00
40670;DHT22;26355;45.528;9.234;2023-02-18T10:05:17;19.00;97.00
40670;DHT22;26355;45.528;9.234;2023-02-18T10:07:43;19.10;97.20
40670;DHT22;26355;45.528;9.234;2023-02-18T10:12:40;19.20;97.30
40670;DHT22;26355;45.528;9.234;2023-02-18T10:15:09;19.30;97.30
40670;DHT22;26355;45.528;9.234;2023-02-18T10:17:41;19.30;97.00
40670;DHT22;26355;45.528;9.234;2023-02-18T10:20:07;19.40;97.10
40670;DHT22;26355;45.528;9.234;2023-02-18T10:22:32;19.30;97.10
40670;DHT22;26355;45.528;9.234;2023-02-18T10:24:58;19.30;97.10
40670;DHT22;26355;45.528;9.234;2023-02-18T10:29:50;19.30;97.40
40670;DHT22;26355;45.528;9.234;2023-02-18T10:32:18;19.40;97.30
40670;DHT22;26355;45.528;9.234;2023-02-18T10:52:54;20.20;96.70
40670;DHT22;26355;45.528;9.234;2023-02-18T10:55:20;20.30;96.60
40670;DHT22;26355;45.528;9.234;2023-02-18T10:57:57;20.30;96.60
40670;DHT22;26355;45.528;9.234;2023-02-18T11:00:24;20.40;96.70
40670;DHT22;26355;45.528;9.234;2023-02-18T11:05:47;20.60;96.10
40670;DHT22;26355;45.528;9.234;2023-02-18T11:08:17;20.90;96.30
40670;DHT22;26355;45.528;9.234;2023-02-18T11:10:45;20.90;96.00
40670;DHT22;26355;45.528;9.234;2023-02-18T11:13:14;21.00;95.90
40670;DHT22;26355;45.528;9.234;2023-02-18T11:16:03;21.20;95.80
40670;DHT22;26355;45.528;9.234;2023-02-18T11:18:36;21.50;95.90
40670;DHT22;26355;45.528;9.234;2023-02-18T11:21:04;21.70;95.40
40670;DHT22;26355;45.528;9.234;2023-02-18T11:23:30;21.70;95.00
40670;DHT22;26355;45.528;9.234;2023-02-18T11:28:29;21.60;94.90
40670;DHT22;26355;45.528;9.234;2023-02-18T11:30:57;21.60;94.50
40670;DHT22;26355;45.528;9.234;2023-02-18T11:35:56;21.40;94.90
40670;DHT22;26355;45.528;9.234;2023-02-18T11:38:24;21.30;94.50
40670;DHT22;26355;45.528;9.234;2023-02-18T11:40:56;21.30;95.00
40670;DHT22;26355;45.528;9.234;2023-02-18T11:43:26;21.20;94.90
40670;DHT22;26355;45.528;9.234;2023-02-18T11:46:13;21.30;94.80
40670;DHT22;26355;45.528;9.234;2023-02-18T11:48:38;21.40;95.50
40670;DHT22;26355;45.528;9.234;2023-02-18T11:51:04;21.60;94.30
40670;DHT22;26355;45.528;9.234;2023-02-18T11:53:34;21.40;94.50
40670;DHT22;26355;45.528;9.234;2023-02-18T11:56:01;21.30;94.30
40670;DHT22;26355;45.528;9.234;2023-02-18T11:58:28;21.20;94.70
40670;DHT22;26355;45.528;9.234;2023-02-18T12:00:56;21.00;94.90
40670;DHT22;26355;45.528;9.234;2023-02-18T12:03:37;21.00;95.10
40670;DHT22;26355;45.528;9.234;2023-02-18T12:06:11;21.20;95.20
40670;DHT22;26355;45.528;9.234;2023-02-18T12:08:42;21.30;94.80
40670;DHT22;26355;45.528;9.234;2023-02-18T12:11:13;21.30;95.00
40670;DHT22;26355;45.528;9.234;2023-02-18T12:13:57;21.40;95.00
40670;DHT22;26355;45.528;9.234;2023-02-18T12:21:57;21.20;94.60
40670;DHT22;26355;45.528;9.234;2023-02-18T12:27:14;21.00;94.60
40670;DHT22;26355;45.528;9.234;2023-02-18T12:29:55;20.80;94.90
40670;DHT22;26355;45.528;9.234;2023-02-18T12:32:27;20.60;94.80
40670;DHT22;26355;45.528;9.234;2023-02-18T12:40:00;20.40;95.40
40670;DHT22;26355;45.528;9.234;2023-02-18T12:47:46;20.30;95.40
40670;DHT22;26355;45.528;9.234;2023-02-18T12:50:21;20.20;95.60
40670;DHT22;26355;45.528;9.234;2023-02-18T13:03:26;20.20;95.70
40670;DHT22;26355;45.528;9.234;2023-02-18T13:06:09;20.10;95.90
40670;DHT22;26355;45.528;9.234;2023-02-18T13:13:30;20.10;96.10
40670;DHT22;26355;45.528;9.234;2023-02-18T13:16:01;20.00;95.80
40670;DHT22;26355;45.528;9.234;2023-02-18T13:18:40;20.00;95.90
40670;DHT22;26355;45.528;9.234;2023-02-18T13:21:08;20.10;95.90
40670;DHT22;26355;45.528;9.234;2023-02-18T13:23:37;20.10;96.00
40670;DHT22;26355;45.528;9.234;2023-02-18T13:26:04;20.20;95.80
40670;DHT22;26355;45.528;9.234;2023-02-18T13:33:44;20.10;96.00
40670;DHT22;26355;45.528;9.234;2023-02-18T13:36:20;20.20;95.80
40670;DHT22;26355;45.528;9.234;2023-02-18T13:38:57;20.20;95.90
40670;DHT22;26355;45.528;9.234;2023-02-18T13:41:25;20.20;95.60
40670;DHT22;26355;45.528;9.234;2023-02-18T13:43:50;20.40;95.70
40670;DHT22;26355;45.528;9.234;2023-02-18T13:46:20;20.10;95.40
40670;DHT22;26355;45.528;9.234;2023-02-18T13:48:47;20.00;95.70
40670;DHT22;26355;45.528;9.234;2023-02-18T13:51:14;20.00;95.80
40670;DHT22;26355;45.528;9.234;2023-02-18T13:53:41;19.90;96.00
40670;DHT22;26355;45.528;9.234;2023-02-18T13:56:08;20.00;96.10
40670;DHT22;26355;45.528;9.234;2023-02-18T13:58:37;20.00;96.10
40670;DHT22;26355;45.528;9.234;2023-02-18T14:03:38;20.10;96.20
40670;DHT22;26355;45.528;9.234;2023-02-18T14:06:21;20.00;96.10
40670;DHT22;26355;45.528;9.234;2023-02-18T14:08:48;20.00;96.10
40670;DHT22;26355;45.528;9.234;2023-02-18T14:13:43;19.50;96.40
40670;DHT22;26355;45.528;9.234;2023-02-18T14:16:11;19.50;96.60
40670;DHT22;26355;45.528;9.234;2023-02-18T14:21:04;19.70;96.70
40670;DHT22;26355;45.528;9.234;2023-02-18T14:36:27;19.60;96.70
40670;DHT22;26355;45.528;9.234;2023-02-18T14:38:58;19.50;96.70
40670;DHT22;26355;45.528;9.234;2023-02-18T14:41:28;19.50;96.90
40670;DHT22;26355;45.528;9.234;2023-02-18T14:48:56;19.60;97.00
40670;DHT22;26355;45.528;9.234;2023-02-18T14:51:27;19.70;97.00
40670;DHT22;26355;45.528;9.234;2023-02-18T14:53:53;19.50;96.90
40670;DHT22;26355;45.528;9.234;2023-02-18T14:56:20;19.60;97.00
40670;DHT22;26355;45.528;9.234;2023-02-18T14:58:54;19.50;97.00
40670;DHT22;26355;45.528;9.234;2023-02-18T15:03:50;19.60;97.10
40670;DHT22;26355;45.528;9.234;2023-02-18T15:08:57;19.60;96.90
40670;DHT22;26355;45.528;9.234;2023-02-18T15:11:24;19.70;96.70
40670;DHT22;26355;45.528;9.234;2023-02-18T15:13:51;19.70;96.70
40670;DHT22;26355;45.528;9.234;2023-02-18T15:16:26;19.80;96.60
40670;DHT22;26355;45.528;9.234;2023-02-18T15:18:55;19.80;96.60
40670;DHT22;26355;45.528;9.234;2023-02-18T15:21:31;19.70;96.50
40670;DHT22;26355;45.528;9.234;2023-02-18T15:24:05;19.70;96.50
40670;DHT22;26355;45.528;9.234;2023-02-18T15:26:31;19.70;96.60
40670;DHT22;26355;45.528;9.234;2023-02-18T15:28:58;19.60;96.60
40670;DHT22;26355;45.528;9.234;2023-02-18T15:31:24;19.70;96.70
40670;DHT22;26355;45.528;9.234;2023-02-18T15:33:50;19.60;96.60
40670;DHT22;26355;45.528;9.234;2023-02-18T15:36:16;19.60;96.70
40670;DHT22;26355;45.528;9.234;2023-02-18T15:38:42;19.50;96.80
40670;DHT22;26355;45.528;9.234;2023-02-18T15:41:17;19.50;96.90
40670;DHT22;26355;45.528;9.234;2023-02-18T15:43:54;19.40;97.00
40670;DHT22;26355;45.528;9.234;2023-02-18T15:46:20;19.30;96.90
40670;DHT22;26355;45.528;9.234;2023-02-18T15:48:47;19.30;96.90
40670;DHT22;26355;45.528;9.234;2023-02-18T15:51:33;19.30;97.00
40670;DHT22;26355;45.528;9.234;2023-02-18T15:53:59;19.20;97.10
40670;DHT22;26355;45.528;9.234;2023-02-18T15:56:33;19.20;97.20
40670;DHT22;26355;45.528;9.234;2023-02-18T15:59:16;19.20;97.30
40670;DHT22;26355;45.528;9.234;2023-02-18T16:01:42;19.10;97.40
40670;DHT22;26355;45.528;9.234;2023-02-18T16:04:10;19.20;97.50
40670;DHT22;26355;45.528;9.234;2023-02-18T16:06:37;19.10;97.60
40670;DHT22;26355;45.528;9.234;2023-02-18T16:09:12;19.10;97.70
40670;DHT22;26355;45.528;9.234;2023-02-18T16:11:44;19.00;97.70
40670;DHT22;26355;45.528;9.234;2023-02-18T16:14:22;19.00;97.80
40670;DHT22;26355;45.528;9.234;2023-02-18T16:16:55;18.90;97.90
40670;DHT22;26355;45.528;9.234;2023-02-18T16:19:23;18.80;98.30
40670;DHT22;26355;45.528;9.234;2023-02-18T16:21:49;18.80;98.00
40670;DHT22;26355;45.528;9.234;2023-02-18T16:24:24;18.80;98.00
40670;DHT22;26355;45.528;9.234;2023-02-18T16:26:51;18.70;98.00
40670;DHT22;26355;45.528;9.234;2023-02-18T16:29:23;18.70;98.00
40670;DHT22;26355;45.528;9.234;2023-02-18T16:31:49;18.80;98.00
40670;DHT22;26355;45.528;9.234;2023-02-18T16:34:14;18.70;98.10
40670;DHT22;26355;45.528;9.234;2023-02-18T16:36:40;18.70;98.10
40670;DHT22;26355;45.528;9.234;2023-02-18T16:39:26;18.60;98.20
40670;DHT22;26355;45.528;9.234;2023-02-18T16:41:52;18.60;98.20
40670;DHT22;26355;45.528;9.234;2023-02-18T16:44:17;18.50;98.30
40670;DHT22;26355;45.528;9.234;2023-02-18T16:46:43;18.40;98.30
40670;DHT22;26355;45.528;9.234;2023-02-18T16:49:09;18.20;98.40
40670;DHT22;26355;45.528;9.234;2023-02-18T16:51:36;18.20;98.50
40670;DHT22;26355;45.528;9.234;2023-02-18T16:54:02;18.10;98.40
40670;DHT22;26355;45.528;9.234;2023-02-18T16:56:29;18.00;98.50
40670;DHT22;26355;45.528;9.234;2023-02-18T16:58:56;17.90;98.50
40670;DHT22;26355;45.528;9.234;2023-02-18T17:03:53;17.60;98.90
40670;DHT22;26355;45.528;9.234;2023-02-18T17:06:19;17.60;99.30
40670;DHT22;26355;45.528;9.234;2023-02-18T17:08:45;17.50;99.10
40670;DHT22;26355;45.528;9.234;2023-02-18T17:11:43;17.40;99.10
40670;DHT22;26355;45.528;9.234;2023-02-18T17:14:02;17.50;99.30
40670;DHT22;26355;45.528;9.234;2023-02-18T17:16:29;17.40;99.30
40670;DHT22;26355;45.528;9.234;2023-02-18T17:18:54;17.20;99.40
40670;DHT22;26355;45.528;9.234;2023-02-18T17:21:21;17.20;99.70
40670;DHT22;26355;45.528;9.234;2023-02-18T17:23:47;17.20;99.90
40670;DHT22;26355;45.528;9.234;2023-02-18T17:26:21;17.30;99.90
40670;DHT22;26355;45.528;9.234;2023-02-18T17:28:48;17.30;99.80
40670;DHT22;26355;45.528;9.234;2023-02-18T17:31:16;17.20;99.80
40670;DHT22;26355;45.528;9.234;2023-02-18T17:33:42;17.30;99.90
40670;DHT22;26355;45.528;9.234;2023-02-18T17:36:09;17.10;99.90
40670;DHT22;26355;45.528;9.234;2023-02-18T17:38:35;17.20;99.90
40670;DHT22;26355;45.528;9.234;2023-02-18T17:41:00;17.20;99.90
40670;DHT22;26355;45.528;9.234;2023-02-18T17:43:25;17.20;99.90
40670;DHT22;26355;45.528;9.234;2023-02-18T17:45:52;17.20;99.90